sensor_id;sensor_type;location;lat;lon;timestamp;P1;durP1;ratioP1;P2;durP2;ratioP2
72235;SDS011;60146;52.498;13.462;2023-04-08T00:00:34;14.03;;;6.80;;
72235;SDS011;60146;52.498;13.462;2023-04-08T00:03:00;16.10;;;6.37;;
72235;SDS011;60146;52.498;13.462;2023-04-08T00:05:26;15.47;;;7.00;;
72235;SDS011;60146;52.498;13.462;2023-04-08T00:07:51;16.77;;;7.00;;
72235;SDS011;60146;52.498;13.462;2023-04-08T00:10:16;17.20;;;6.90;;
72235;SDS011;60146;52.498;13.462;2023-04-08T00:12:42;15.73;;;7.07;;
72235;SDS011;60146;52.498;13.462;2023-04-08T00:15:07;20.77;;;7.77;;
72235;SDS011;60146;52.498;13.462;2023-04-08T00:17:33;21.67;;;8.13;;
72235;SDS011;60146;52.498;13.462;2023-04-08T00:19:58;17.80;;;7.83;;
72235;SDS011;60146;52.498;13.462;2023-04-08T00:22:24;21.10;;;8.43;;
72235;SDS011;60146;52.498;13.462;2023-04-08T00:24:49;19.17;;;7.83;;
72235;SDS011;60146;52.498;13.462;2023-04-08T00:27:15;21.17;;;7.93;;
72235;SDS011;60146;52.498;13.462;2023-04-08T00:29:40;21.77;;;8.00;;
72235;SDS011;60146;52.498;13.462;2023-04-08T00:32:05;18.40;;;7.90;;
72235;SDS011;60146;52.498;13.462;2023-04-08T00:34:31;20.93;;;8.60;;
72235;SDS011;60146;52.498;13.462;2023-04-08T00:36:57;21.53;;;8.20;;
72235;SDS011;60146;52.498;13.462;2023-04-08T00:39:24;20.73;;;8.63;;
72235;SDS011;60146;52.498;13.462;2023-04-08T00:41:49;23.23;;;8.90;;
72235;SDS011;60146;52.498;13.462;2023-04-08T00:44:15;22.33;;;8.93;;
72235;SDS011;60146;52.498;13.462;2023-04-08T00:46:40;23.17;;;8.47;;
72235;SDS011;60146;52.498;13.462;2023-04-08T00:49:06;23.13;;;9.17;;
72235;SDS011;60146;52.498;13.462;2023-04-08T00:51:31;23.20;;;9.27;;
72235;SDS011;60146;52.498;13.462;2023-04-08T00:53:57;21.87;;;8.57;;
72235;SDS011;60146;52.498;13.462;2023-04-08T00:56:24;26.00;;;9.57;;
72235;SDS011;60146;52.498;13.462;2023-04-08T00:58:51;24.67;;;9.07;;
72235;SDS011;60146;52.498;13.462;2023-04-08T01:01:25;26.70;;;10.20;;
72235;SDS011;60146;52.498;13.462;2023-04-08T01:09:13;27.57;;;10.60;;
72235;SDS011;60146;52.498;13.462;2023-04-08T01:11:45;31.33;;;10.40;;
72235;SDS011;60146;52.498;13.462;2023-04-08T01:14:15;32.70;;;10.57;;
72235;SDS011;60146;52.498;13.462;2023-04-08T01:16:44;30.65;;;11.15;;
72235;SDS011;60146;52.498;13.462;2023-04-08T01:19:10;29.63;;;11.50;;
72235;SDS011;60146;52.498;13.462;2023-04-08T01:25:11;26.07;;;10.13;;
72235;SDS011;60146;52.498;13.462;2023-04-08T01:27:41;26.93;;;9.83;;
72235;SDS011;60146;52.498;13.462;2023-04-08T01:30:08;29.10;;;10.93;;
72235;SDS011;60146;52.498;13.462;2023-04-08T01:32:34;34.97;;;11.20;;
72235;SDS011;60146;52.498;13.462;2023-04-08T01:35:01;31.73;;;10.63;;
72235;SDS011;60146;52.498;13.462;2023-04-08T01:37:27;29.30;;;10.97;;
72235;SDS011;60146;52.498;13.462;2023-04-08T01:39:53;31.33;;;11.17;;
72235;SDS011;60146;52.498;13.462;2023-04-08T01:42:21;28.43;;;10.07;;
72235;SDS011;60146;52.498;13.462;2023-04-08T01:44:48;28.47;;;10.50;;
72235;SDS011;60146;52.498;13.462;2023-04-08T01:47:15;31.93;;;10.90;;
72235;SDS011;60146;52.498;13.462;2023-04-08T01:49:40;27.60;;;10.53;;
72235;SDS011;60146;52.498;13.462;2023-04-08T01:52:08;33.90;;;11.00;;
72235;SDS011;60146;52.498;13.462;2023-04-08T01:54:34;32.30;;;10.83;;
72235;SDS011;60146;52.498;13.462;2023-04-08T01:56:59;30.67;;;11.37;;
72235;SDS011;60146;52.498;13.462;2023-04-08T01:59:29;32.40;;;10.97;;
72235;SDS011;60146;52.498;13.462;2023-04-08T02:01:58;27.50;;;10.45;;
72235;SDS011;60146;52.498;13.462;2023-04-08T02:04:25;28.23;;;10.63;;
72235;SDS011;60146;52.498;13.462;2023-04-08T02:06:54;32.23;;;11.40;;
72235;SDS011;60146;52.498;13.462;2023-04-08T02:09:24;33.33;;;11.50;;
72235;SDS011;60146;52.498;13.462;2023-04-08T02:11:49;27.73;;;10.83;;
72235;SDS011;60146;52.498;13.462;2023-04-08T02:14:14;28.73;;;10.67;;
72235;SDS011;60146;52.498;13.462;2023-04-08T02:16:48;32.93;;;10.90;;
72235;SDS011;60146;52.498;13.462;2023-04-08T02:22:11;32.00;;;10.27;;
72235;SDS011;60146;52.498;13.462;2023-04-08T02:24:43;32.57;;;11.50;;
72235;SDS011;60146;52.498;13.462;2023-04-08T02:27:10;36.90;;;11.50;;
72235;SDS011;60146;52.498;13.462;2023-04-08T02:29:36;32.97;;;11.63;;
72235;SDS011;60146;52.498;13.462;2023-04-08T02:32:04;31.87;;;11.50;;
72235;SDS011;60146;52.498;13.462;2023-04-08T02:34:30;35.17;;;11.83;;
72235;SDS011;60146;52.498;13.462;2023-04-08T02:36:56;36.47;;;12.13;;
72235;SDS011;60146;52.498;13.462;2023-04-08T02:39:29;32.63;;;11.37;;
72235;SDS011;60146;52.498;13.462;2023-04-08T02:41:55;33.67;;;11.63;;
72235;SDS011;60146;52.498;13.462;2023-04-08T02:44:21;38.57;;;12.90;;
72235;SDS011;60146;52.498;13.462;2023-04-08T02:52:24;35.13;;;11.67;;
72235;SDS011;60146;52.498;13.462;2023-04-08T02:58:04;31.13;;;11.03;;
72235;SDS011;60146;52.498;13.462;2023-04-08T03:00:30;35.80;;;11.40;;
72235;SDS011;60146;52.498;13.462;2023-04-08T03:02:55;31.70;;;10.93;;
72235;SDS011;60146;52.498;13.462;2023-04-08T03:05:21;35.07;;;10.97;;
72235;SDS011;60146;52.498;13.462;2023-04-08T03:07:46;35.73;;;12.03;;
72235;SDS011;60146;52.498;13.462;2023-04-08T03:10:11;31.37;;;11.80;;
72235;SDS011;60146;52.498;13.462;2023-04-08T03:12:37;33.50;;;11.53;;
72235;SDS011;60146;52.498;13.462;2023-04-08T03:15:02;37.03;;;12.63;;
72235;SDS011;60146;52.498;13.462;2023-04-08T03:17:28;32.47;;;11.30;;
72235;SDS011;60146;52.498;13.462;2023-04-08T03:19:56;35.13;;;12.13;;
72235;SDS011;60146;52.498;13.462;2023-04-08T03:22:21;35.73;;;13.43;;
72235;SDS011;60146;52.498;13.462;2023-04-08T03:24:48;32.07;;;10.83;;
72235;SDS011;60146;52.498;13.462;2023-04-08T03:27:13;32.53;;;11.97;;
72235;SDS011;60146;52.498;13.462;2023-04-08T03:29:39;38.20;;;12.47;;
72235;SDS011;60146;52.498;13.462;2023-04-08T03:32:11;35.10;;;12.17;;
72235;SDS011;60146;52.498;13.462;2023-04-08T03:34:39;41.63;;;12.77;;
72235;SDS011;60146;52.498;13.462;2023-04-08T03:37:05;36.37;;;11.87;;
72235;SDS011;60146;52.498;13.462;2023-04-08T03:39:30;37.30;;;13.00;;
72235;SDS011;60146;52.498;13.462;2023-04-08T03:41:56;36.97;;;12.37;;
72235;SDS011;60146;52.498;13.462;2023-04-08T03:44:23;37.20;;;12.10;;
72235;SDS011;60146;52.498;13.462;2023-04-08T03:46:49;39.20;;;13.60;;
72235;SDS011;60146;52.498;13.462;2023-04-08T03:49:14;34.07;;;11.43;;
72235;SDS011;60146;52.498;13.462;2023-04-08T03:51:40;35.87;;;12.90;;
72235;SDS011;60146;52.498;13.462;2023-04-08T03:54:05;40.30;;;12.97;;
72235;SDS011;60146;52.498;13.462;2023-04-08T03:56:31;44.73;;;14.03;;
72235;SDS011;60146;52.498;13.462;2023-04-08T03:58:57;39.37;;;13.00;;
72235;SDS011;60146;52.498;13.462;2023-04-08T04:01:22;36.63;;;12.80;;
72235;SDS011;60146;52.498;13.462;2023-04-08T04:03:47;38.13;;;12.97;;
72235;SDS011;60146;52.498;13.462;2023-04-08T04:06:13;35.77;;;12.43;;
72235;SDS011;60146;52.498;13.462;2023-04-08T04:08:38;41.13;;;14.10;;
72235;SDS011;60146;52.498;13.462;2023-04-08T04:11:03;42.23;;;13.00;;
72235;SDS011;60146;52.498;13.462;2023-04-08T04:13:29;39.93;;;13.20;;
72235;SDS011;60146;52.498;13.462;2023-04-08T04:15:54;42.23;;;13.67;;
72235;SDS011;60146;52.498;13.462;2023-04-08T04:18:20;40.43;;;12.97;;
72235;SDS011;60146;52.498;13.462;2023-04-08T04:20:46;33.90;;;13.33;;
72235;SDS011;60146;52.498;13.462;2023-04-08T04:23:11;48.50;;;15.93;;
72235;SDS011;60146;52.498;13.462;2023-04-08T04:25:39;39.47;;;13.77;;
72235;SDS011;60146;52.498;13.462;2023-04-08T04:28:05;40.83;;;14.07;;
72235;SDS011;60146;52.498;13.462;2023-04-08T04:30:31;42.47;;;13.57;;
72235;SDS011;60146;52.498;13.462;2023-04-08T04:32:57;37.57;;;12.87;;
72235;SDS011;60146;52.498;13.462;2023-04-08T04:35:22;37.43;;;13.23;;
72235;SDS011;60146;52.498;13.462;2023-04-08T04:37:48;39.17;;;13.53;;
72235;SDS011;60146;52.498;13.462;2023-04-08T04:40:15;39.07;;;12.97;;
72235;SDS011;60146;52.498;13.462;2023-04-08T04:42:41;38.80;;;12.40;;
72235;SDS011;60146;52.498;13.462;2023-04-08T04:45:07;39.90;;;14.07;;
72235;SDS011;60146;52.498;13.462;2023-04-08T04:47:34;39.03;;;13.70;;
72235;SDS011;60146;52.498;13.462;2023-04-08T04:49:59;39.90;;;13.83;;
72235;SDS011;60146;52.498;13.462;2023-04-08T04:52:25;35.23;;;12.60;;
72235;SDS011;60146;52.498;13.462;2023-04-08T04:54:50;38.50;;;13.63;;
72235;SDS011;60146;52.498;13.462;2023-04-08T04:57:16;41.63;;;13.27;;
72235;SDS011;60146;52.498;13.462;2023-04-08T04:59:42;40.83;;;13.37;;
72235;SDS011;60146;52.498;13.462;2023-04-08T05:02:07;42.63;;;13.93;;
72235;SDS011;60146;52.498;13.462;2023-04-08T05:04:32;40.23;;;13.70;;
72235;SDS011;60146;52.498;13.462;2023-04-08T05:06:58;37.40;;;13.30;;
72235;SDS011;60146;52.498;13.462;2023-04-08T05:09:24;38.97;;;13.47;;
72235;SDS011;60146;52.498;13.462;2023-04-08T05:11:50;42.57;;;13.57;;
72235;SDS011;60146;52.498;13.462;2023-04-08T05:14:15;39.83;;;14.53;;
72235;SDS011;60146;52.498;13.462;2023-04-08T05:16:40;44.40;;;14.03;;
72235;SDS011;60146;52.498;13.462;2023-04-08T05:19:06;45.13;;;14.73;;
72235;SDS011;60146;52.498;13.462;2023-04-08T05:21:31;39.17;;;13.63;;
72235;SDS011;60146;52.498;13.462;2023-04-08T05:23:57;41.23;;;14.27;;
72235;SDS011;60146;52.498;13.462;2023-04-08T05:26:22;45.90;;;14.63;;
72235;SDS011;60146;52.498;13.462;2023-04-08T05:28:48;42.23;;;14.57;;
72235;SDS011;60146;52.498;13.462;2023-04-08T05:31:17;46.53;;;14.57;;
72235;SDS011;60146;52.498;13.462;2023-04-08T05:33:43;46.83;;;14.87;;
72235;SDS011;60146;52.498;13.462;2023-04-08T05:36:09;49.67;;;15.17;;
72235;SDS011;60146;52.498;13.462;2023-04-08T05:38:35;49.57;;;15.40;;
72235;SDS011;60146;52.498;13.462;2023-04-08T05:41:01;41.37;;;13.60;;
72235;SDS011;60146;52.498;13.462;2023-04-08T05:43:26;47.87;;;16.10;;
72235;SDS011;60146;52.498;13.462;2023-04-08T05:45:52;43.50;;;14.67;;
72235;SDS011;60146;52.498;13.462;2023-04-08T05:48:17;48.47;;;15.23;;
72235;SDS011;60146;52.498;13.462;2023-04-08T05:50:42;48.80;;;14.80;;
72235;SDS011;60146;52.498;13.462;2023-04-08T05:53:08;47.83;;;15.63;;
72235;SDS011;60146;52.498;13.462;2023-04-08T05:55:34;48.73;;;13.93;;
72235;SDS011;60146;52.498;13.462;2023-04-08T05:57:59;44.50;;;15.33;;
72235;SDS011;60146;52.498;13.462;2023-04-08T06:00:25;49.23;;;16.23;;
72235;SDS011;60146;52.498;13.462;2023-04-08T06:02:51;51.90;;;15.70;;
72235;SDS011;60146;52.498;13.462;2023-04-08T06:05:16;44.27;;;14.50;;
72235;SDS011;60146;52.498;13.462;2023-04-08T06:07:43;42.40;;;14.10;;
72235;SDS011;60146;52.498;13.462;2023-04-08T06:10:09;48.00;;;14.87;;
72235;SDS011;60146;52.498;13.462;2023-04-08T06:12:35;46.07;;;15.40;;
72235;SDS011;60146;52.498;13.462;2023-04-08T06:15:01;45.00;;;14.33;;
72235;SDS011;60146;52.498;13.462;2023-04-08T06:17:26;48.53;;;15.40;;
72235;SDS011;60146;52.498;13.462;2023-04-08T06:19:52;44.27;;;14.60;;
72235;SDS011;60146;52.498;13.462;2023-04-08T06:22:17;45.60;;;14.60;;
72235;SDS011;60146;52.498;13.462;2023-04-08T06:24:42;46.97;;;14.97;;
72235;SDS011;60146;52.498;13.462;2023-04-08T06:27:08;46.37;;;16.07;;
72235;SDS011;60146;52.498;13.462;2023-04-08T06:29:33;46.00;;;15.03;;
72235;SDS011;60146;52.498;13.462;2023-04-08T06:31:59;47.67;;;14.67;;
72235;SDS011;60146;52.498;13.462;2023-04-08T06:34:24;46.33;;;15.87;;
72235;SDS011;60146;52.498;13.462;2023-04-08T06:36:50;48.13;;;15.80;;
72235;SDS011;60146;52.498;13.462;2023-04-08T06:39:15;45.87;;;15.53;;
72235;SDS011;60146;52.498;13.462;2023-04-08T06:41:41;48.53;;;14.83;;
72235;SDS011;60146;52.498;13.462;2023-04-08T06:44:06;46.33;;;15.90;;
72235;SDS011;60146;52.498;13.462;2023-04-08T06:46:32;46.40;;;15.57;;
72235;SDS011;60146;52.498;13.462;2023-04-08T06:48:57;43.93;;;14.33;;
72235;SDS011;60146;52.498;13.462;2023-04-08T06:51:22;45.93;;;15.73;;
72235;SDS011;60146;52.498;13.462;2023-04-08T06:53:48;46.27;;;15.73;;
72235;SDS011;60146;52.498;13.462;2023-04-08T06:56:13;47.27;;;14.50;;
72235;SDS011;60146;52.498;13.462;2023-04-08T06:58:39;44.50;;;14.77;;
72235;SDS011;60146;52.498;13.462;2023-04-08T07:01:04;45.60;;;14.83;;
72235;SDS011;60146;52.498;13.462;2023-04-08T07:03:30;46.90;;;15.40;;
72235;SDS011;60146;52.498;13.462;2023-04-08T07:05:55;39.37;;;14.60;;
72235;SDS011;60146;52.498;13.462;2023-04-08T07:08:20;45.63;;;14.63;;
72235;SDS011;60146;52.498;13.462;2023-04-08T07:10:46;45.67;;;15.60;;
72235;SDS011;60146;52.498;13.462;2023-04-08T07:13:11;43.70;;;15.27;;
72235;SDS011;60146;52.498;13.462;2023-04-08T07:15:37;41.17;;;14.80;;
72235;SDS011;60146;52.498;13.462;2023-04-08T07:18:02;43.03;;;14.67;;
72235;SDS011;60146;52.498;13.462;2023-04-08T07:20:28;41.13;;;14.43;;
72235;SDS011;60146;52.498;13.462;2023-04-08T07:22:54;41.20;;;14.60;;
72235;SDS011;60146;52.498;13.462;2023-04-08T07:25:20;43.00;;;13.27;;
72235;SDS011;60146;52.498;13.462;2023-04-08T07:27:45;40.90;;;13.87;;
72235;SDS011;60146;52.498;13.462;2023-04-08T07:30:11;37.30;;;13.10;;
72235;SDS011;60146;52.498;13.462;2023-04-08T07:32:36;40.23;;;13.60;;
72235;SDS011;60146;52.498;13.462;2023-04-08T07:35:02;41.20;;;13.90;;
72235;SDS011;60146;52.498;13.462;2023-04-08T07:37:27;36.33;;;13.27;;
72235;SDS011;60146;52.498;13.462;2023-04-08T07:39:53;41.30;;;13.50;;
72235;SDS011;60146;52.498;13.462;2023-04-08T07:42:19;41.77;;;14.30;;
72235;SDS011;60146;52.498;13.462;2023-04-08T07:44:44;37.30;;;13.60;;
72235;SDS011;60146;52.498;13.462;2023-04-08T07:47:10;38.87;;;13.80;;
72235;SDS011;60146;52.498;13.462;2023-04-08T07:49:36;35.67;;;13.53;;
72235;SDS011;60146;52.498;13.462;2023-04-08T07:52:03;40.07;;;13.67;;
72235;SDS011;60146;52.498;13.462;2023-04-08T07:54:31;38.03;;;13.83;;
72235;SDS011;60146;52.498;13.462;2023-04-08T07:56:58;39.70;;;14.03;;
72235;SDS011;60146;52.498;13.462;2023-04-08T07:59:24;37.70;;;14.10;;
72235;SDS011;60146;52.498;13.462;2023-04-08T08:01:50;35.87;;;13.33;;
72235;SDS011;60146;52.498;13.462;2023-04-08T08:04:15;39.50;;;13.77;;
72235;SDS011;60146;52.498;13.462;2023-04-08T08:06:40;35.53;;;13.47;;
72235;SDS011;60146;52.498;13.462;2023-04-08T08:09:06;36.97;;;13.03;;
72235;SDS011;60146;52.498;13.462;2023-04-08T08:11:31;36.20;;;14.10;;
72235;SDS011;60146;52.498;13.462;2023-04-08T08:13:57;34.53;;;12.63;;
72235;SDS011;60146;52.498;13.462;2023-04-08T08:16:22;38.27;;;13.50;;
72235;SDS011;60146;52.498;13.462;2023-04-08T08:18:51;34.17;;;13.30;;
72235;SDS011;60146;52.498;13.462;2023-04-08T08:21:16;32.37;;;12.83;;
72235;SDS011;60146;52.498;13.462;2023-04-08T08:23:42;40.23;;;13.83;;
72235;SDS011;60146;52.498;13.462;2023-04-08T08:26:08;33.70;;;12.77;;
72235;SDS011;60146;52.498;13.462;2023-04-08T08:28:34;35.37;;;13.40;;
72235;SDS011;60146;52.498;13.462;2023-04-08T08:31:00;35.60;;;12.90;;
72235;SDS011;60146;52.498;13.462;2023-04-08T08:33:26;35.07;;;13.00;;
72235;SDS011;60146;52.498;13.462;2023-04-08T08:35:52;41.03;;;15.93;;
72235;SDS011;60146;52.498;13.462;2023-04-08T08:38:17;35.63;;;14.60;;
72235;SDS011;60146;52.498;13.462;2023-04-08T08:40:43;37.63;;;12.83;;
72235;SDS011;60146;52.498;13.462;2023-04-08T08:43:09;33.10;;;12.80;;
72235;SDS011;60146;52.498;13.462;2023-04-08T08:45:38;32.83;;;12.13;;
72235;SDS011;60146;52.498;13.462;2023-04-08T08:48:05;30.13;;;12.48;;
72235;SDS011;60146;52.498;13.462;2023-04-08T08:50:32;31.40;;;12.13;;
72235;SDS011;60146;52.498;13.462;2023-04-08T08:52:58;27.73;;;12.10;;
72235;SDS011;60146;52.498;13.462;2023-04-08T08:55:23;33.90;;;12.67;;
72235;SDS011;60146;52.498;13.462;2023-04-08T08:57:49;30.57;;;12.07;;
72235;SDS011;60146;52.498;13.462;2023-04-08T09:00:15;34.53;;;12.40;;
72235;SDS011;60146;52.498;13.462;2023-04-08T09:02:41;27.33;;;11.30;;
72235;SDS011;60146;52.498;13.462;2023-04-08T09:05:07;32.67;;;12.37;;
72235;SDS011;60146;52.498;13.462;2023-04-08T09:07:36;32.63;;;13.03;;
72235;SDS011;60146;52.498;13.462;2023-04-08T09:10:04;29.53;;;12.47;;
72235;SDS011;60146;52.498;13.462;2023-04-08T09:12:30;31.27;;;12.63;;
72235;SDS011;60146;52.498;13.462;2023-04-08T09:15:02;34.83;;;13.03;;
72235;SDS011;60146;52.498;13.462;2023-04-08T09:17:32;33.23;;;13.17;;
72235;SDS011;60146;52.498;13.462;2023-04-08T09:20:03;32.07;;;12.53;;
72235;SDS011;60146;52.498;13.462;2023-04-08T09:22:58;37.22;;;13.10;;
72235;SDS011;60146;52.498;13.462;2023-04-08T09:25:26;33.27;;;13.33;;
72235;SDS011;60146;52.498;13.462;2023-04-08T09:27:56;33.30;;;12.70;;
72235;SDS011;60146;52.498;13.462;2023-04-08T09:30:22;34.50;;;13.30;;
72235;SDS011;60146;52.498;13.462;2023-04-08T09:32:52;32.63;;;12.00;;
72235;SDS011;60146;52.498;13.462;2023-04-08T09:35:20;31.63;;;12.47;;
72235;SDS011;60146;52.498;13.462;2023-04-08T09:37:46;30.77;;;12.30;;
72235;SDS011;60146;52.498;13.462;2023-04-08T09:40:13;31.20;;;12.30;;
72235;SDS011;60146;52.498;13.462;2023-04-08T09:42:46;32.17;;;12.97;;
72235;SDS011;60146;52.498;13.462;2023-04-08T09:45:15;31.40;;;12.33;;
72235;SDS011;60146;52.498;13.462;2023-04-08T09:47:43;32.00;;;12.93;;
72235;SDS011;60146;52.498;13.462;2023-04-08T09:50:21;34.60;;;12.47;;
72235;SDS011;60146;52.498;13.462;2023-04-08T09:52:52;33.23;;;13.43;;
72235;SDS011;60146;52.498;13.462;2023-04-08T09:55:21;27.17;;;11.57;;
72235;SDS011;60146;52.498;13.462;2023-04-08T09:58:07;26.70;;;11.40;;
72235;SDS011;60146;52.498;13.462;2023-04-08T10:00:41;30.90;;;11.83;;
72235;SDS011;60146;52.498;13.462;2023-04-08T10:05:54;32.17;;;12.83;;
72235;SDS011;60146;52.498;13.462;2023-04-08T10:08:22;28.60;;;12.10;;
72235;SDS011;60146;52.498;13.462;2023-04-08T10:10:48;30.53;;;12.53;;
72235;SDS011;60146;52.498;13.462;2023-04-08T10:13:15;27.07;;;12.03;;
72235;SDS011;60146;52.498;13.462;2023-04-08T10:15:41;29.50;;;12.00;;
72235;SDS011;60146;52.498;13.462;2023-04-08T10:27:55;24.70;;;11.98;;
72235;SDS011;60146;52.498;13.462;2023-04-08T10:32:53;21.98;;;11.07;;
72235;SDS011;60146;52.498;13.462;2023-04-08T10:35:36;22.80;;;11.10;;
72235;SDS011;60146;52.498;13.462;2023-04-08T10:38:06;26.83;;;12.05;;
72235;SDS011;60146;52.498;13.462;2023-04-08T10:40:36;27.83;;;11.50;;
72235;SDS011;60146;52.498;13.462;2023-04-08T10:43:06;23.53;;;11.33;;
72235;SDS011;60146;52.498;13.462;2023-04-08T10:45:35;24.73;;;11.43;;
72235;SDS011;60146;52.498;13.462;2023-04-08T10:55:50;22.07;;;10.50;;
72235;SDS011;60146;52.498;13.462;2023-04-08T10:58:16;25.30;;;10.97;;
72235;SDS011;60146;52.498;13.462;2023-04-08T11:00:42;25.60;;;11.40;;
72235;SDS011;60146;52.498;13.462;2023-04-08T11:03:08;19.63;;;10.20;;
72235;SDS011;60146;52.498;13.462;2023-04-08T11:05:35;20.73;;;9.83;;
72235;SDS011;60146;52.498;13.462;2023-04-08T11:08:02;22.87;;;9.77;;
72235;SDS011;60146;52.498;13.462;2023-04-08T11:10:29;20.10;;;10.27;;
72235;SDS011;60146;52.498;13.462;2023-04-08T11:12:55;24.07;;;11.00;;
72235;SDS011;60146;52.498;13.462;2023-04-08T11:15:21;25.67;;;11.33;;
72235;SDS011;60146;52.498;13.462;2023-04-08T11:17:49;28.27;;;12.07;;
72235;SDS011;60146;52.498;13.462;2023-04-08T11:20:15;25.43;;;10.43;;
72235;SDS011;60146;52.498;13.462;2023-04-08T11:22:41;26.47;;;12.03;;
72235;SDS011;60146;52.498;13.462;2023-04-08T11:25:08;22.40;;;10.77;;
72235;SDS011;60146;52.498;13.462;2023-04-08T11:27:35;22.97;;;10.20;;
72235;SDS011;60146;52.498;13.462;2023-04-08T11:30:00;27.77;;;11.03;;
72235;SDS011;60146;52.498;13.462;2023-04-08T11:32:26;21.63;;;10.20;;
72235;SDS011;60146;52.498;13.462;2023-04-08T11:34:53;22.53;;;10.40;;
72235;SDS011;60146;52.498;13.462;2023-04-08T11:37:18;20.60;;;9.60;;
72235;SDS011;60146;52.498;13.462;2023-04-08T11:39:44;18.93;;;9.40;;
72235;SDS011;60146;52.498;13.462;2023-04-08T11:44:52;18.63;;;8.93;;
72235;SDS011;60146;52.498;13.462;2023-04-08T11:47:17;15.40;;;7.67;;
72235;SDS011;60146;52.498;13.462;2023-04-08T11:49:43;21.57;;;9.33;;
72235;SDS011;60146;52.498;13.462;2023-04-08T11:52:10;16.07;;;7.87;;
72235;SDS011;60146;52.498;13.462;2023-04-08T11:54:39;16.87;;;8.20;;
72235;SDS011;60146;52.498;13.462;2023-04-08T11:57:05;16.67;;;8.23;;
72235;SDS011;60146;52.498;13.462;2023-04-08T11:59:31;16.33;;;8.10;;
72235;SDS011;60146;52.498;13.462;2023-04-08T12:01:56;15.20;;;8.23;;
72235;SDS011;60146;52.498;13.462;2023-04-08T12:04:22;13.70;;;7.30;;
72235;SDS011;60146;52.498;13.462;2023-04-08T12:06:48;12.82;;;7.03;;
72235;SDS011;60146;52.498;13.462;2023-04-08T12:09:13;13.80;;;7.82;;
72235;SDS011;60146;52.498;13.462;2023-04-08T12:11:39;14.55;;;7.47;;
72235;SDS011;60146;52.498;13.462;2023-04-08T12:14:05;11.82;;;6.63;;
72235;SDS011;60146;52.498;13.462;2023-04-08T12:16:30;13.20;;;7.47;;
72235;SDS011;60146;52.498;13.462;2023-04-08T12:18:56;12.93;;;7.20;;
72235;SDS011;60146;52.498;13.462;2023-04-08T12:21:21;12.23;;;6.75;;
72235;SDS011;60146;52.498;13.462;2023-04-08T12:23:46;14.02;;;8.13;;
72235;SDS011;60146;52.498;13.462;2023-04-08T12:26:12;14.00;;;7.72;;
72235;SDS011;60146;52.498;13.462;2023-04-08T12:28:37;14.60;;;6.80;;
72235;SDS011;60146;52.498;13.462;2023-04-08T12:31:03;12.65;;;6.50;;
72235;SDS011;60146;52.498;13.462;2023-04-08T12:33:29;11.23;;;6.50;;
72235;SDS011;60146;52.498;13.462;2023-04-08T12:35:54;10.23;;;6.47;;
72235;SDS011;60146;52.498;13.462;2023-04-08T12:38:22;9.98;;;5.85;;
72235;SDS011;60146;52.498;13.462;2023-04-08T12:40:47;10.20;;;6.30;;
72235;SDS011;60146;52.498;13.462;2023-04-08T12:43:13;8.52;;;5.95;;
72235;SDS011;60146;52.498;13.462;2023-04-08T12:45:38;10.65;;;6.57;;
72235;SDS011;60146;52.498;13.462;2023-04-08T12:48:04;9.48;;;6.32;;
72235;SDS011;60146;52.498;13.462;2023-04-08T12:50:29;8.60;;;5.63;;
72235;SDS011;60146;52.498;13.462;2023-04-08T12:52:55;9.70;;;6.10;;
72235;SDS011;60146;52.498;13.462;2023-04-08T12:55:23;10.38;;;6.70;;
72235;SDS011;60146;52.498;13.462;2023-04-08T12:57:51;9.00;;;6.50;;
72235;SDS011;60146;52.498;13.462;2023-04-08T13:00:17;9.90;;;6.30;;
72235;SDS011;60146;52.498;13.462;2023-04-08T13:02:43;8.98;;;6.10;;
72235;SDS011;60146;52.498;13.462;2023-04-08T13:05:09;8.77;;;5.78;;
72235;SDS011;60146;52.498;13.462;2023-04-08T13:07:35;10.02;;;5.78;;
72235;SDS011;60146;52.498;13.462;2023-04-08T13:10:01;8.02;;;5.90;;
72235;SDS011;60146;52.498;13.462;2023-04-08T13:12:27;9.23;;;5.78;;
72235;SDS011;60146;52.498;13.462;2023-04-08T13:14:53;9.38;;;6.45;;
72235;SDS011;60146;52.498;13.462;2023-04-08T13:17:19;8.25;;;5.70;;
72235;SDS011;60146;52.498;13.462;2023-04-08T13:19:44;9.05;;;6.35;;
72235;SDS011;60146;52.498;13.462;2023-04-08T13:22:11;11.32;;;6.72;;
72235;SDS011;60146;52.498;13.462;2023-04-08T13:24:37;9.63;;;7.13;;
72235;SDS011;60146;52.498;13.462;2023-04-08T13:27:03;10.23;;;6.45;;
72235;SDS011;60146;52.498;13.462;2023-04-08T13:29:28;9.60;;;6.47;;
72235;SDS011;60146;52.498;13.462;2023-04-08T13:31:53;10.77;;;7.05;;
72235;SDS011;60146;52.498;13.462;2023-04-08T13:34:19;9.45;;;6.18;;
72235;SDS011;60146;52.498;13.462;2023-04-08T13:36:44;10.02;;;7.07;;
72235;SDS011;60146;52.498;13.462;2023-04-08T13:39:10;13.43;;;6.70;;
72235;SDS011;60146;52.498;13.462;2023-04-08T13:41:35;10.40;;;6.65;;
72235;SDS011;60146;52.498;13.462;2023-04-08T13:44:00;10.75;;;6.70;;
72235;SDS011;60146;52.498;13.462;2023-04-08T13:46:26;10.80;;;6.63;;
72235;SDS011;60146;52.498;13.462;2023-04-08T13:48:51;9.38;;;6.20;;
72235;SDS011;60146;52.498;13.462;2023-04-08T13:51:17;10.25;;;6.55;;
72235;SDS011;60146;52.498;13.462;2023-04-08T13:53:42;9.57;;;6.57;;
72235;SDS011;60146;52.498;13.462;2023-04-08T13:56:07;9.38;;;6.30;;
72235;SDS011;60146;52.498;13.462;2023-04-08T13:58:33;9.15;;;6.38;;
72235;SDS011;60146;52.498;13.462;2023-04-08T14:00:58;11.15;;;6.50;;
72235;SDS011;60146;52.498;13.462;2023-04-08T14:03:23;9.57;;;6.32;;
72235;SDS011;60146;52.498;13.462;2023-04-08T14:05:50;9.35;;;6.10;;
72235;SDS011;60146;52.498;13.462;2023-04-08T14:08:16;8.82;;;5.82;;
72235;SDS011;60146;52.498;13.462;2023-04-08T14:10:48;9.98;;;6.32;;
72235;SDS011;60146;52.498;13.462;2023-04-08T14:13:14;10.65;;;6.50;;
72235;SDS011;60146;52.498;13.462;2023-04-08T14:15:39;10.18;;;6.65;;
72235;SDS011;60146;52.498;13.462;2023-04-08T14:18:04;9.35;;;6.47;;
72235;SDS011;60146;52.498;13.462;2023-04-08T14:20:31;9.32;;;6.05;;
72235;SDS011;60146;52.498;13.462;2023-04-08T14:22:56;10.77;;;6.38;;
72235;SDS011;60146;52.498;13.462;2023-04-08T14:25:21;9.23;;;6.50;;
72235;SDS011;60146;52.498;13.462;2023-04-08T14:27:47;9.15;;;6.15;;
72235;SDS011;60146;52.498;13.462;2023-04-08T14:30:12;10.15;;;6.40;;
72235;SDS011;60146;52.498;13.462;2023-04-08T14:32:37;10.18;;;6.53;;
72235;SDS011;60146;52.498;13.462;2023-04-08T14:35:03;12.38;;;6.95;;
72235;SDS011;60146;52.498;13.462;2023-04-08T14:37:28;8.77;;;6.25;;
72235;SDS011;60146;52.498;13.462;2023-04-08T14:39:55;8.90;;;6.03;;
72235;SDS011;60146;52.498;13.462;2023-04-08T14:42:20;10.10;;;6.20;;
72235;SDS011;60146;52.498;13.462;2023-04-08T14:44:46;9.57;;;6.35;;
72235;SDS011;60146;52.498;13.462;2023-04-08T14:47:11;9.68;;;5.85;;
72235;SDS011;60146;52.498;13.462;2023-04-08T14:49:37;10.48;;;7.03;;
72235;SDS011;60146;52.498;13.462;2023-04-08T14:52:02;9.63;;;6.22;;
72235;SDS011;60146;52.498;13.462;2023-04-08T14:54:27;11.20;;;6.85;;